createdAt,value
2018-01-26T00:00:44.458Z,71.93
2018-01-26T00:02:37.810Z,72.41
2018-01-26T00:03:37.773Z,72.41
2018-01-26T00:05:31.136Z,72.12
2018-01-26T00:06:31.092Z,72.21
2018-01-26T00:08:24.452Z,72.12
2018-01-26T00:09:24.403Z,71.73
2018-01-26T00:11:17.765Z,71.83
2018-01-26T00:12:17.736Z,72.12
2018-01-26T00:14:12.028Z,72.12
2018-01-26T00:15:11.980Z,72.31
2018-01-26T00:17:05.344Z,72.12
2018-01-26T00:18:05.303Z,72.21
2018-01-26T00:19:58.729Z,72.08
2018-01-26T00:20:58.667Z,72.27
2018-01-26T00:22:52.019Z,71.80
2018-01-26T00:23:51.967Z,71.98
2018-01-26T00:25:46.319Z,71.70
2018-01-26T00:26:46.293Z,72.37
2018-01-26T00:28:39.679Z,72.65
2018-01-26T00:29:39.600Z,72.27
2018-01-26T00:31:35.446Z,72.65
2018-01-26T00:32:35.411Z,72.65
2018-01-26T00:34:31.318Z,72.56
2018-01-26T00:35:31.271Z,72.75
2018-01-26T00:37:24.706Z,72.65
2018-01-26T00:38:24.586Z,72.46
2018-01-26T00:40:20.447Z,72.46
2018-01-26T00:41:20.402Z,72.46
2018-01-26T00:43:13.764Z,72.75
2018-01-26T00:44:13.718Z,72.75
2018-01-26T00:46:07.084Z,72.65
2018-01-26T00:47:07.044Z,72.56
2018-01-26T00:49:00.437Z,72.75
2018-01-26T00:50:00.374Z,72.85
2018-01-26T00:51:56.227Z,72.65
2018-01-26T00:52:56.180Z,72.65
2018-01-26T00:54:52.049Z,72.27
2018-01-26T00:55:52.008Z,72.08
2018-01-26T00:57:45.366Z,71.89
2018-01-26T00:58:45.321Z,72.37
2018-01-26T01:00:38.681Z,72.27
2018-01-26T01:01:38.651Z,71.89
2018-01-26T01:03:32.014Z,72.17
2018-01-26T01:04:31.970Z,72.08
2018-01-26T01:06:25.357Z,71.70
2018-01-26T01:07:25.296Z,71.89
2018-01-26T01:09:18.661Z,71.61
2018-01-26T01:10:18.616Z,71.83
2018-01-26T01:12:12.004Z,71.03
2018-01-26T01:13:11.937Z,71.98
2018-01-26T01:15:05.299Z,71.22
2018-01-26T01:16:05.252Z,71.42
2018-01-26T01:18:01.126Z,71.22
2018-01-26T01:19:01.075Z,71.32
2018-01-26T01:20:54.433Z,71.61
2018-01-26T01:21:54.396Z,71.61
2018-01-26T01:23:47.790Z,72.08
2018-01-26T01:24:47.711Z,72.08
2018-01-26T01:26:41.084Z,72.08
2018-01-26T01:27:41.041Z,71.89
2018-01-26T01:29:34.395Z,71.42
2018-01-26T01:30:34.352Z,71.80
2018-01-26T01:32:27.727Z,72.17
2018-01-26T01:33:27.671Z,71.70
2018-01-26T01:35:21.031Z,71.80
2018-01-26T01:36:20.988Z,71.42
2018-01-26T01:38:13.872Z,71.80
2018-01-26T01:39:13.821Z,71.80
2018-01-26T01:41:07.206Z,71.70
2018-01-26T01:42:07.149Z,72.27
2018-01-26T01:44:01.527Z,72.08
2018-01-26T01:45:01.485Z,71.98
2018-01-26T01:46:54.846Z,71.98
2018-01-26T01:47:54.801Z,71.98
2018-01-26T01:49:48.166Z,71.89
2018-01-26T01:50:48.122Z,71.80
2018-01-26T01:52:41.492Z,71.42
2018-01-26T01:53:41.456Z,71.89
2018-01-26T01:55:34.870Z,71.70
2018-01-26T01:56:34.775Z,71.13
2018-01-26T01:58:28.128Z,71.89
2018-01-26T01:59:28.087Z,71.61
2018-01-26T02:01:21.458Z,71.70
2018-01-26T02:02:21.425Z,71.89
2018-01-26T02:04:14.788Z,71.80
2018-01-26T02:05:14.735Z,71.98
2018-01-26T02:07:08.103Z,72.08
2018-01-26T02:08:08.063Z,72.08
2018-01-26T02:10:01.426Z,72.27
2018-01-26T02:11:01.389Z,71.98
2018-01-26T02:12:57.240Z,71.98
2018-01-26T02:13:57.200Z,72.08
2018-01-26T02:15:53.073Z,72.08
2018-01-26T02:16:53.024Z,72.27
2018-01-26T02:18:48.929Z,72.37
2018-01-26T02:19:48.852Z,72.56
2018-01-26T02:21:42.223Z,72.17
2018-01-26T02:22:42.170Z,71.98
2018-01-26T02:24:35.654Z,72.46
2018-01-26T02:25:35.608Z,72.17
2018-01-26T02:27:29.939Z,72.27
2018-01-26T02:28:29.844Z,72.08
2018-01-26T02:30:23.209Z,72.08
2018-01-26T02:31:23.153Z,72.27
2018-01-26T02:33:16.515Z,72.17
2018-01-26T02:34:16.476Z,71.89
2018-01-26T02:36:09.857Z,71.70
2018-01-26T02:37:09.806Z,71.42
2018-01-26T02:39:03.163Z,71.51
2018-01-26T02:40:03.118Z,71.61
2018-01-26T02:41:56.471Z,71.70
2018-01-26T02:42:56.432Z,72.17
2018-01-26T02:44:49.825Z,71.98
2018-01-26T02:45:49.775Z,71.61
2018-01-26T02:47:43.135Z,71.70
2018-01-26T02:48:43.099Z,71.70
2018-01-26T02:50:36.454Z,71.22
2018-01-26T02:51:36.415Z,71.42
2018-01-26T02:53:29.787Z,71.22
2018-01-26T02:54:29.757Z,71.51
2018-01-26T02:56:25.622Z,71.42
2018-01-26T02:57:25.581Z,71.61
2018-01-26T02:59:18.952Z,71.51
2018-01-26T03:00:18.895Z,71.22
2018-01-26T03:02:12.284Z,71.51
2018-01-26T03:03:12.243Z,71.61
2018-01-26T03:05:06.438Z,71.03
2018-01-26T03:06:06.394Z,70.94
2018-01-26T03:08:00.654Z,70.94
2018-01-26T03:09:00.614Z,70.94
2018-01-26T03:10:54.042Z,71.22
2018-01-26T03:11:53.941Z,71.22
2018-01-26T03:13:47.300Z,70.94
2018-01-26T03:14:47.257Z,71.32
2018-01-26T03:16:40.614Z,70.27
2018-01-26T03:17:40.571Z,70.18
2018-01-26T03:19:33.948Z,70.65
2018-01-26T03:20:33.895Z,70.56
2018-01-26T03:22:27.256Z,70.56
2018-01-26T03:23:27.211Z,70.65
2018-01-26T03:25:20.582Z,70.84
2018-01-26T03:26:20.529Z,70.40
2018-01-26T03:28:13.886Z,70.65
2018-01-26T03:29:13.853Z,70.84
2018-01-26T03:31:07.212Z,70.75
2018-01-26T03:32:07.163Z,70.75
2018-01-26T03:34:03.031Z,70.56
2018-01-26T03:35:02.990Z,70.65
2018-01-26T03:36:56.367Z,70.65
2018-01-26T03:37:56.306Z,70.65
2018-01-26T03:39:49.670Z,70.56
2018-01-26T03:40:49.640Z,70.47
2018-01-26T03:42:42.998Z,70.65
2018-01-26T03:43:42.952Z,70.88
2018-01-26T03:45:36.342Z,70.59
2018-01-26T03:46:36.301Z,70.31
2018-01-26T03:48:29.659Z,70.59
2018-01-26T03:49:29.629Z,69.99
2018-01-26T03:51:22.987Z,70.27
2018-01-26T03:52:22.953Z,70.12
2018-01-26T03:54:16.300Z,69.74
2018-01-26T03:55:16.255Z,70.12
2018-01-26T03:57:09.620Z,70.31
2018-01-26T03:58:09.582Z,70.40
2018-01-26T04:00:02.938Z,70.31
2018-01-26T04:01:02.897Z,70.21
2018-01-26T04:02:57.088Z,69.93
2018-01-26T04:03:57.028Z,69.93
2018-01-26T04:05:49.913Z,70.02
2018-01-26T04:06:49.878Z,70.12
2018-01-26T04:08:43.226Z,70.40
2018-01-26T04:09:43.184Z,70.40
2018-01-26T04:11:36.565Z,70.02
2018-01-26T04:12:36.503Z,70.02
2018-01-26T04:14:29.871Z,70.31
2018-01-26T04:15:29.838Z,70.02
2018-01-26T04:17:23.214Z,70.02
2018-01-26T04:18:23.181Z,70.59
2018-01-26T04:20:16.547Z,70.78
2018-01-26T04:21:16.493Z,70.69
2018-01-26T04:23:09.863Z,70.69
2018-01-26T04:24:09.826Z,71.13
2018-01-26T04:26:03.211Z,71.80
2018-01-26T04:27:03.136Z,72.31
2018-01-26T04:28:56.490Z,71.93
2018-01-26T04:29:56.454Z,72.08
2018-01-26T04:31:49.813Z,72.37
2018-01-26T04:32:49.768Z,72.46
2018-01-26T04:34:43.139Z,72.46
2018-01-26T04:35:43.084Z,73.22
2018-01-26T04:37:36.453Z,73.41
2018-01-26T04:38:36.419Z,73.32
2018-01-26T04:40:29.782Z,73.70
2018-01-26T04:41:29.730Z,74.27
2018-01-26T04:43:23.087Z,74.75
2018-01-26T04:44:23.042Z,74.18
2018-01-26T04:46:16.406Z,74.08
2018-01-26T04:47:16.368Z,74.27
2018-01-26T04:49:12.259Z,74.18
2018-01-26T04:50:12.190Z,74.46
2018-01-26T04:52:05.557Z,74.27
2018-01-26T04:53:05.513Z,74.65
2018-01-26T04:54:58.879Z,74.75
2018-01-26T04:55:58.852Z,75.23
2018-01-26T04:57:52.220Z,75.60
2018-01-26T04:58:52.164Z,75.42
2018-01-26T05:00:45.537Z,74.94
2018-01-26T05:01:45.486Z,75.04
2018-01-26T05:03:38.849Z,75.13
2018-01-26T05:04:38.816Z,75.04
2018-01-26T05:06:32.205Z,74.08
2018-01-26T05:07:32.138Z,74.37
2018-01-26T05:09:25.500Z,74.94
2018-01-26T05:10:25.462Z,74.84
2018-01-26T05:12:18.824Z,74.94
2018-01-26T05:13:18.778Z,75.23
2018-01-26T05:15:12.161Z,75.42
2018-01-26T05:16:12.108Z,75.60
2018-01-26T05:18:05.471Z,75.60
2018-01-26T05:19:05.434Z,75.23
2018-01-26T05:20:58.803Z,75.51
2018-01-26T05:21:58.756Z,75.23
2018-01-26T05:23:52.117Z,75.70
2018-01-26T05:24:52.074Z,75.99
2018-01-26T05:26:45.433Z,76.18
2018-01-26T05:27:45.392Z,75.99
2018-01-26T05:29:38.751Z,76.65
2018-01-26T05:30:38.718Z,77.13
2018-01-26T05:32:32.075Z,77.13
2018-01-26T05:33:32.040Z,77.42
2018-01-26T05:35:25.491Z,77.22
2018-01-26T05:36:25.412Z,77.98
2018-01-26T05:38:18.769Z,78.08
2018-01-26T05:39:18.712Z,77.98
2018-01-26T05:41:14.589Z,78.37
2018-01-26T05:42:14.512Z,78.65
2018-01-26T05:44:07.897Z,78.94
2018-01-26T05:45:07.829Z,79.41
2018-01-26T05:47:01.223Z,79.89
2018-01-26T05:48:01.164Z,80.08
2018-01-26T05:49:54.534Z,80.46
2018-01-26T05:50:54.526Z,80.46
2018-01-26T05:52:47.412Z,80.46
2018-01-26T05:53:47.326Z,81.13
2018-01-26T05:55:41.511Z,80.84
2018-01-26T05:56:41.470Z,80.94
2018-01-26T05:58:35.033Z,81.13
2018-01-26T05:59:34.987Z,81.03
2018-01-26T06:01:28.335Z,81.51
2018-01-26T06:02:28.288Z,81.23
2018-01-26T06:04:21.645Z,81.03
2018-01-26T06:05:21.604Z,81.23
2018-01-26T06:07:14.971Z,81.23
2018-01-26T06:08:14.923Z,81.23
2018-01-26T06:10:10.841Z,81.03
2018-01-26T06:11:10.767Z,81.32
2018-01-26T06:13:04.136Z,81.03
2018-01-26T06:14:04.098Z,81.03
2018-01-26T06:15:57.466Z,80.94
2018-01-26T06:16:57.453Z,80.84
2018-01-26T06:18:50.840Z,81.13
2018-01-26T06:19:50.762Z,81.03
2018-01-26T06:21:44.148Z,80.94
2018-01-26T06:22:44.095Z,81.51
2018-01-26T06:24:39.956Z,81.41
2018-01-26T06:25:39.934Z,81.03
2018-01-26T06:27:33.272Z,80.65
2018-01-26T06:28:33.247Z,80.94
2018-01-26T06:30:27.510Z,81.13
2018-01-26T06:31:27.483Z,81.23
2018-01-26T06:33:20.808Z,80.36
2018-01-26T06:34:20.759Z,80.27
2018-01-26T06:36:14.123Z,80.75
2018-01-26T06:37:14.081Z,80.65
2018-01-26T06:39:07.487Z,80.27
2018-01-26T06:40:07.401Z,80.27
2018-01-26T06:42:00.753Z,80.36
2018-01-26T06:43:00.713Z,80.27
2018-01-26T06:44:54.106Z,80.36
2018-01-26T06:45:54.051Z,80.46
2018-01-26T06:47:47.424Z,80.46
2018-01-26T06:48:47.393Z,80.84
2018-01-26T06:50:40.758Z,80.75
2018-01-26T06:51:40.709Z,80.46
2018-01-26T06:53:34.086Z,80.27
2018-01-26T06:54:34.097Z,80.18
2018-01-26T06:56:27.417Z,80.46
2018-01-26T06:57:27.365Z,80.55
2018-01-26T06:59:23.243Z,80.46
2018-01-26T07:00:23.197Z,80.27
2018-01-26T07:02:16.581Z,80.55
2018-01-26T07:03:16.545Z,80.84
2018-01-26T07:05:09.913Z,80.36
2018-01-26T07:06:09.869Z,80.46
2018-01-26T07:08:05.737Z,80.36
2018-01-26T07:09:05.690Z,80.55
2018-01-26T07:10:59.073Z,80.08
2018-01-26T07:11:59.018Z,80.27
2018-01-26T07:13:54.892Z,80.55
2018-01-26T07:14:54.842Z,80.55
2018-01-26T07:16:48.217Z,79.89
2018-01-26T07:17:48.166Z,79.99
2018-01-26T07:19:41.600Z,80.08
2018-01-26T07:20:41.493Z,80.08
2018-01-26T07:22:34.863Z,79.70
2018-01-26T07:23:34.816Z,79.03
2018-01-26T07:25:28.173Z,79.60
2018-01-26T07:26:28.126Z,79.32
2018-01-26T07:28:21.506Z,79.51
2018-01-26T07:29:21.448Z,79.03
2018-01-26T07:31:17.310Z,79.80
2018-01-26T07:32:17.269Z,79.41
2018-01-26T07:34:10.676Z,79.32
2018-01-26T07:35:10.613Z,79.70
2018-01-26T07:37:03.943Z,79.19
2018-01-26T07:38:03.907Z,78.94
2018-01-26T07:39:57.287Z,79.03
2018-01-26T07:40:57.245Z,78.56
2018-01-26T07:42:50.632Z,78.27
2018-01-26T07:43:50.549Z,78.37
2018-01-26T07:45:43.952Z,78.37
2018-01-26T07:46:43.889Z,78.85
2018-01-26T07:48:37.248Z,78.65
2018-01-26T07:49:37.203Z,78.85
2018-01-26T07:51:30.582Z,78.85
2018-01-26T07:52:30.543Z,78.52
2018-01-26T07:54:23.890Z,78.23
2018-01-26T07:55:23.849Z,78.37
2018-01-26T07:57:20.580Z,78.23
2018-01-26T07:58:20.547Z,78.42
2018-01-26T08:00:13.896Z,79.03
2018-01-26T08:01:13.851Z,78.33
2018-01-26T08:03:07.214Z,78.52
2018-01-26T08:04:07.168Z,78.71
2018-01-26T08:06:00.536Z,78.37
2018-01-26T08:07:00.487Z,78.80
2018-01-26T08:08:53.848Z,78.42
2018-01-26T08:09:53.811Z,78.71
2018-01-26T08:11:46.717Z,78.80
2018-01-26T08:12:46.707Z,78.61
2018-01-26T08:14:40.010Z,78.33
2018-01-26T08:15:39.965Z,78.61
2018-01-26T08:17:34.137Z,78.14
2018-01-26T08:18:34.085Z,78.14
2018-01-26T08:20:27.442Z,78.23
2018-01-26T08:21:27.405Z,78.52
2018-01-26T08:23:20.774Z,78.52
2018-01-26T08:24:20.735Z,78.52
2018-01-26T08:26:14.124Z,78.99
2018-01-26T08:27:14.069Z,78.61
2018-01-26T08:29:07.426Z,78.61
2018-01-26T08:30:07.398Z,78.80
2018-01-26T08:32:00.768Z,79.09
2018-01-26T08:33:00.724Z,78.71
2018-01-26T08:34:56.611Z,78.80
2018-01-26T08:35:56.539Z,78.99
2018-01-26T08:37:49.931Z,78.80
2018-01-26T08:38:49.882Z,78.80
2018-01-26T08:40:43.249Z,78.80
2018-01-26T08:41:43.261Z,78.61
2018-01-26T08:43:39.095Z,78.71
2018-01-26T08:44:39.048Z,79.09
2018-01-26T08:46:33.291Z,79.38
2018-01-26T08:47:33.256Z,78.99
2018-01-26T08:49:26.637Z,78.99
2018-01-26T08:50:26.588Z,79.19
2018-01-26T08:52:19.949Z,79.19
2018-01-26T08:53:19.910Z,79.09
2018-01-26T08:55:15.804Z,78.90
2018-01-26T08:56:15.728Z,79.28
2018-01-26T08:58:09.096Z,79.19
2018-01-26T08:59:09.043Z,78.90
2018-01-26T09:01:02.418Z,78.61
2018-01-26T09:02:02.373Z,78.90
2018-01-26T09:03:55.752Z,78.71
2018-01-26T09:04:55.701Z,78.71
2018-01-26T09:06:49.075Z,78.99
2018-01-26T09:07:49.033Z,78.90
2018-01-26T09:09:42.433Z,78.90
2018-01-26T09:10:42.363Z,79.47
2018-01-26T09:12:35.758Z,79.09
2018-01-26T09:13:35.703Z,79.38
2018-01-26T09:15:29.068Z,79.47
2018-01-26T09:16:29.067Z,79.75
2018-01-26T09:18:22.400Z,79.94
2018-01-26T09:19:22.348Z,79.47
2018-01-26T09:21:15.714Z,79.57
2018-01-26T09:22:15.667Z,80.04
2018-01-26T09:24:09.062Z,79.94
2018-01-26T09:25:08.995Z,80.04
2018-01-26T09:27:02.362Z,79.75
2018-01-26T09:28:02.321Z,80.13
2018-01-26T09:29:55.659Z,80.52
2018-01-26T09:30:55.627Z,80.42
2018-01-26T09:32:48.988Z,80.42
2018-01-26T09:33:48.945Z,79.94
2018-01-26T09:35:42.340Z,80.04
2018-01-26T09:36:42.287Z,80.42
2018-01-26T09:38:35.703Z,80.71
2018-01-26T09:39:35.620Z,80.52
2018-01-26T09:41:28.980Z,80.23
2018-01-26T09:42:28.935Z,80.23
2018-01-26T09:44:22.305Z,80.13
2018-01-26T09:45:22.255Z,80.61
2018-01-26T09:47:15.624Z,80.61
2018-01-26T09:48:15.570Z,80.42
2018-01-26T09:50:08.941Z,81.09
2018-01-26T09:51:08.917Z,81.09
2018-01-26T09:53:02.268Z,80.99
2018-01-26T09:54:02.225Z,81.28
2018-01-26T09:55:55.596Z,81.37
2018-01-26T09:56:55.541Z,81.56
2018-01-26T09:58:48.938Z,81.37
2018-01-26T09:59:48.865Z,81.76
2018-01-26T10:01:42.220Z,81.85
2018-01-26T10:02:42.275Z,81.76
2018-01-26T10:04:36.362Z,82.04
2018-01-26T10:05:36.319Z,82.14
2018-01-26T10:07:29.684Z,81.66
2018-01-26T10:08:29.643Z,81.66
2018-01-26T10:10:23.058Z,81.76
2018-01-26T10:11:22.967Z,81.47
2018-01-26T10:13:18.842Z,82.51
2018-01-26T10:14:18.823Z,82.23
2018-01-26T10:16:12.171Z,82.23
2018-01-26T10:17:12.129Z,82.42
2018-01-26T10:19:05.477Z,82.80
2018-01-26T10:20:05.431Z,82.61
2018-01-26T10:21:58.789Z,82.42
2018-01-26T10:22:58.747Z,82.42
2018-01-26T10:24:52.106Z,82.42
2018-01-26T10:25:52.065Z,82.61
2018-01-26T10:27:46.312Z,82.51
2018-01-26T10:28:46.271Z,82.23
2018-01-26T10:30:42.135Z,82.61
2018-01-26T10:31:42.097Z,82.61
2018-01-26T10:33:35.489Z,82.70
2018-01-26T10:34:35.426Z,82.90
2018-01-26T10:36:28.780Z,82.32
2018-01-26T10:37:28.746Z,82.32
2018-01-26T10:39:22.117Z,82.23
2018-01-26T10:40:22.079Z,82.51
2018-01-26T10:42:17.946Z,82.61
2018-01-26T10:43:17.906Z,82.70
2018-01-26T10:45:11.265Z,82.70
2018-01-26T10:46:11.234Z,82.32
2018-01-26T10:48:04.593Z,82.23
2018-01-26T10:49:04.539Z,81.56
2018-01-26T10:51:00.397Z,81.95
2018-01-26T10:52:00.354Z,81.89
2018-01-26T10:53:53.709Z,82.08
2018-01-26T10:54:53.686Z,81.85
2018-01-26T10:56:47.098Z,81.98
2018-01-26T10:57:47.011Z,81.66
2018-01-26T10:59:40.369Z,82.42
2018-01-26T11:00:40.332Z,82.42
2018-01-26T11:02:33.686Z,82.99
2018-01-26T11:03:33.646Z,82.65
2018-01-26T11:05:27.005Z,82.70
2018-01-26T11:06:26.978Z,82.14
2018-01-26T11:08:20.353Z,82.08
2018-01-26T11:09:20.294Z,82.75
2018-01-26T11:11:13.653Z,82.32
2018-01-26T11:12:13.608Z,82.65
2018-01-26T11:14:06.987Z,82.56
2018-01-26T11:15:06.922Z,81.70
2018-01-26T11:17:00.313Z,81.85
2018-01-26T11:18:00.270Z,81.98
2018-01-26T11:19:53.637Z,82.65
2018-01-26T11:20:53.586Z,82.75
2018-01-26T11:22:46.960Z,82.80
2018-01-26T11:23:46.916Z,82.65
2018-01-26T11:25:40.331Z,82.46
2018-01-26T11:26:40.295Z,82.65
2018-01-26T11:28:33.671Z,82.51
2018-01-26T11:29:33.610Z,82.65
2018-01-26T11:31:26.982Z,83.03
2018-01-26T11:32:26.936Z,82.75
2018-01-26T11:34:20.301Z,82.93
2018-01-26T11:35:20.258Z,82.56
2018-01-26T11:37:13.622Z,83.32
2018-01-26T11:38:13.572Z,82.93
2018-01-26T11:40:07.937Z,82.65
2018-01-26T11:41:07.902Z,82.93
2018-01-26T11:43:01.289Z,83.41
2018-01-26T11:44:01.221Z,83.13
2018-01-26T11:45:54.578Z,83.28
2018-01-26T11:46:54.532Z,83.09
2018-01-26T11:48:47.890Z,83.03
2018-01-26T11:49:47.848Z,83.13
2018-01-26T11:51:42.220Z,83.28
2018-01-26T11:52:42.167Z,83.18
2018-01-26T11:54:35.541Z,83.32
2018-01-26T11:55:35.512Z,83.13
2018-01-26T11:57:29.876Z,83.09
2018-01-26T11:58:29.819Z,83.03
2018-01-26T12:00:23.203Z,82.70
2018-01-26T12:01:23.136Z,82.99
2018-01-26T12:03:16.502Z,82.90
2018-01-26T12:04:16.463Z,82.65
2018-01-26T12:06:09.839Z,82.80
2018-01-26T12:07:09.777Z,83.22
2018-01-26T12:09:03.172Z,82.70
2018-01-26T12:10:03.105Z,82.90
2018-01-26T12:11:57.356Z,83.09
2018-01-26T12:12:57.302Z,83.22
2018-01-26T12:14:50.686Z,82.99
2018-01-26T12:15:50.644Z,82.93
2018-01-26T12:17:43.998Z,83.70
2018-01-26T12:18:43.955Z,83.41
2018-01-26T12:20:37.310Z,83.51
2018-01-26T12:21:37.281Z,83.75
2018-01-26T12:23:30.642Z,83.13
2018-01-26T12:24:30.597Z,83.22
2018-01-26T12:26:26.461Z,83.18
2018-01-26T12:27:26.411Z,82.99
2018-01-26T12:29:19.828Z,83.47
2018-01-26T12:30:19.742Z,83.65
2018-01-26T12:32:13.108Z,83.28
2018-01-26T12:33:13.082Z,83.80
2018-01-26T12:35:06.438Z,83.22
2018-01-26T12:36:06.385Z,83.47
2018-01-26T12:37:59.747Z,83.70
2018-01-26T12:38:59.707Z,83.61
2018-01-26T12:40:53.066Z,83.89
2018-01-26T12:41:53.029Z,83.70
2018-01-26T12:43:47.396Z,83.51
2018-01-26T12:44:47.340Z,83.80
2018-01-26T12:46:40.708Z,83.51
2018-01-26T12:47:40.670Z,83.13
2018-01-26T12:49:34.025Z,83.03
2018-01-26T12:50:33.988Z,83.70
2018-01-26T12:52:27.357Z,83.80
2018-01-26T12:53:27.334Z,83.80
2018-01-26T12:55:20.687Z,83.89
2018-01-26T12:56:20.650Z,83.89
2018-01-26T12:58:14.013Z,83.80
2018-01-26T12:59:13.972Z,83.41
2018-01-26T13:01:07.369Z,83.22
2018-01-26T13:02:07.288Z,83.22
2018-01-26T13:04:00.647Z,83.41
2018-01-26T13:05:00.621Z,83.41
2018-01-26T13:06:53.973Z,83.61
2018-01-26T13:07:53.931Z,83.03
2018-01-26T13:09:47.295Z,82.84
2018-01-26T13:10:47.253Z,82.84
2018-01-26T13:12:40.635Z,82.84
2018-01-26T13:13:40.582Z,82.65
2018-01-26T13:15:34.787Z,82.65
2018-01-26T13:16:34.750Z,82.56
2018-01-26T13:18:28.102Z,82.08
2018-01-26T13:19:28.060Z,82.18
2018-01-26T13:21:22.302Z,81.89
2018-01-26T13:22:22.284Z,82.56
2018-01-26T13:24:18.145Z,82.84
2018-01-26T13:25:18.100Z,82.46
2018-01-26T13:27:11.496Z,82.56
2018-01-26T13:28:11.430Z,82.65
2018-01-26T13:30:04.808Z,83.13
2018-01-26T13:31:04.767Z,82.75
2018-01-26T13:32:58.149Z,83.32
2018-01-26T13:33:58.088Z,83.13
2018-01-26T13:35:51.456Z,82.65
2018-01-26T13:36:51.417Z,82.56
2018-01-26T13:38:44.756Z,82.56
2018-01-26T13:39:44.760Z,82.46
2018-01-26T13:41:39.082Z,81.98
2018-01-26T13:42:39.041Z,81.89
2018-01-26T13:44:32.442Z,81.98
2018-01-26T13:45:32.365Z,82.04
2018-01-26T13:47:25.751Z,81.85
2018-01-26T13:48:25.669Z,81.79
2018-01-26T13:50:19.032Z,81.66
2018-01-26T13:51:18.988Z,81.56
2018-01-26T13:53:12.349Z,82.37
2018-01-26T13:54:12.322Z,82.32
2018-01-26T13:56:06.502Z,82.23
2018-01-26T13:57:06.479Z,81.76
2018-01-26T13:58:59.836Z,81.85
2018-01-26T13:59:59.776Z,81.79
2018-01-26T14:01:53.141Z,81.98
2018-01-26T14:02:53.101Z,82.70
2018-01-26T14:04:46.936Z,82.18
2018-01-26T14:05:46.488Z,81.95
2018-01-26T14:07:39.790Z,82.65
2018-01-26T14:08:39.741Z,82.56
2018-01-26T14:10:33.099Z,82.65
2018-01-26T14:11:33.063Z,82.18
2018-01-26T14:13:26.511Z,81.89
2018-01-26T14:14:26.407Z,81.79
2018-01-26T14:16:19.792Z,81.51
2018-01-26T14:17:19.735Z,81.23
2018-01-26T14:19:13.089Z,81.23
2018-01-26T14:20:13.047Z,80.94
2018-01-26T14:22:06.408Z,80.84
2018-01-26T14:23:06.363Z,80.36
2018-01-26T14:24:59.721Z,80.46
2018-01-26T14:25:59.684Z,80.75
2018-01-26T14:27:53.070Z,80.84
2018-01-26T14:28:53.017Z,80.71
2018-01-26T14:30:48.886Z,80.84
2018-01-26T14:31:48.839Z,80.46
2018-01-26T14:33:44.715Z,80.90
2018-01-26T14:34:44.665Z,80.36
2018-01-26T14:36:38.031Z,80.36
2018-01-26T14:37:37.979Z,81.03
2018-01-26T14:39:31.357Z,80.75
2018-01-26T14:40:31.313Z,80.99
2018-01-26T14:42:24.666Z,81.09
2018-01-26T14:43:24.630Z,81.37
2018-01-26T14:45:17.984Z,80.90
2018-01-26T14:46:17.945Z,80.61
2018-01-26T14:48:11.302Z,80.61
2018-01-26T14:49:11.260Z,80.80
2018-01-26T14:51:04.616Z,80.80
2018-01-26T14:52:04.582Z,80.80
2018-01-26T14:54:00.444Z,81.18
2018-01-26T14:55:00.404Z,80.99
2018-01-26T14:56:53.765Z,80.90
2018-01-26T14:57:53.752Z,81.18
2018-01-26T14:59:47.075Z,81.56
2018-01-26T15:00:47.042Z,81.56
2018-01-26T15:02:40.393Z,81.37
2018-01-26T15:03:40.352Z,81.09
2018-01-26T15:05:33.706Z,81.85
2018-01-26T15:06:33.672Z,82.14
2018-01-26T15:08:27.041Z,81.66
2018-01-26T15:09:26.986Z,81.85
2018-01-26T15:11:21.147Z,82.32
2018-01-26T15:12:21.102Z,82.23
2018-01-26T15:14:16.955Z,82.61
2018-01-26T15:15:16.918Z,82.90
2018-01-26T15:17:10.283Z,82.80
2018-01-26T15:18:10.242Z,82.70
2018-01-26T15:20:03.645Z,82.70
2018-01-26T15:21:03.571Z,82.70
2018-01-26T15:22:56.927Z,83.37
2018-01-26T15:23:56.884Z,83.28
2018-01-26T15:25:50.292Z,82.61
2018-01-26T15:26:50.234Z,82.70
2018-01-26T15:28:44.593Z,82.42
2018-01-26T15:29:44.558Z,82.23
2018-01-26T15:31:40.421Z,82.61
2018-01-26T15:32:40.407Z,82.23
2018-01-26T15:34:36.232Z,82.61
2018-01-26T15:35:36.195Z,82.32
2018-01-26T15:37:29.552Z,82.14
2018-01-26T15:38:29.511Z,82.61
2018-01-26T15:40:22.866Z,82.42
2018-01-26T15:41:22.823Z,82.32
2018-01-26T15:43:16.198Z,82.80
2018-01-26T15:44:16.153Z,82.90
2018-01-26T15:46:12.010Z,82.61
2018-01-26T15:47:11.958Z,82.70
2018-01-26T15:49:05.318Z,83.28
2018-01-26T15:50:05.275Z,83.37
2018-01-26T15:51:58.669Z,83.28
2018-01-26T15:52:58.597Z,82.90
2018-01-26T15:54:51.956Z,82.80
2018-01-26T15:55:51.909Z,83.09
2018-01-26T15:57:45.275Z,82.99
2018-01-26T15:58:45.235Z,83.65
2018-01-26T16:00:38.595Z,83.37
2018-01-26T16:01:38.559Z,83.56
2018-01-26T16:03:31.912Z,83.65
2018-01-26T16:04:31.875Z,83.47
2018-01-26T16:06:25.223Z,83.47
2018-01-26T16:07:25.239Z,84.04
2018-01-26T16:09:18.551Z,84.04
2018-01-26T16:10:18.506Z,84.04
2018-01-26T16:12:11.890Z,84.23
2018-01-26T16:13:11.835Z,83.85
2018-01-26T16:15:05.258Z,83.94
2018-01-26T16:16:05.163Z,83.85
2018-01-26T16:17:59.443Z,84.04
2018-01-26T16:18:59.362Z,84.04
2018-01-26T16:20:52.732Z,84.04
2018-01-26T16:21:52.685Z,84.23
2018-01-26T16:23:46.066Z,83.94
2018-01-26T16:24:46.030Z,84.42
2018-01-26T16:26:41.916Z,84.61
2018-01-26T16:27:41.866Z,84.61
2018-01-26T16:29:35.237Z,84.42
2018-01-26T16:30:35.218Z,84.13
2018-01-26T16:32:28.586Z,84.33
2018-01-26T16:33:28.514Z,84.33
2018-01-26T16:35:22.731Z,85.18
2018-01-26T16:36:22.688Z,84.70
2018-01-26T16:38:16.050Z,84.23
2018-01-26T16:39:16.016Z,84.13
2018-01-26T16:41:09.375Z,84.61
2018-01-26T16:42:09.336Z,84.33
2018-01-26T16:44:05.188Z,84.99
2018-01-26T16:45:05.146Z,84.23
2018-01-26T16:47:01.875Z,84.80
2018-01-26T16:48:01.832Z,84.70
2018-01-26T16:49:55.202Z,84.80
2018-01-26T16:50:55.153Z,84.23
2018-01-26T16:52:48.524Z,84.70
2018-01-26T16:53:48.471Z,84.99
2018-01-26T16:55:41.870Z,85.18
2018-01-26T16:56:41.787Z,85.18
2018-01-26T16:58:35.142Z,85.28
2018-01-26T16:59:35.105Z,85.66
2018-01-26T17:01:28.458Z,85.47
2018-01-26T17:02:28.416Z,86.22
2018-01-26T17:04:22.596Z,86.04
2018-01-26T17:05:22.579Z,86.22
2018-01-26T17:07:15.914Z,86.32
2018-01-26T17:08:15.891Z,86.13
2018-01-26T17:10:09.234Z,86.51
2018-01-26T17:11:09.201Z,86.42
2018-01-26T17:13:02.564Z,86.90
2018-01-26T17:14:02.514Z,86.22
2018-01-26T17:15:55.906Z,86.90
2018-01-26T17:16:55.840Z,86.94
2018-01-26T17:18:49.192Z,87.08
2018-01-26T17:19:49.145Z,87.32
2018-01-26T17:21:42.504Z,87.56
2018-01-26T17:22:42.463Z,86.80
2018-01-26T17:24:36.822Z,87.08
2018-01-26T17:25:36.779Z,87.46
2018-01-26T17:27:32.638Z,87.65
2018-01-26T17:28:32.597Z,86.80
2018-01-26T17:30:25.967Z,86.90
2018-01-26T17:31:25.940Z,86.70
2018-01-26T17:33:18.778Z,86.99
2018-01-26T17:34:18.738Z,87.18
2018-01-26T17:36:14.593Z,87.71
2018-01-26T17:37:14.554Z,87.71
2018-01-26T17:39:07.957Z,88.09
2018-01-26T17:40:07.876Z,87.99
2018-01-26T17:42:01.231Z,87.80
2018-01-26T17:43:01.186Z,87.99
2018-01-26T17:44:54.592Z,88.09
2018-01-26T17:45:54.514Z,88.09
2018-01-26T17:47:47.889Z,87.80
2018-01-26T17:48:47.831Z,87.94
2018-01-26T17:50:41.199Z,88.04
2018-01-26T17:51:41.160Z,87.90
2018-01-26T17:53:34.533Z,87.90
2018-01-26T17:54:34.477Z,87.85
2018-01-26T17:56:28.855Z,88.18
2018-01-26T17:57:28.810Z,88.46
2018-01-26T17:59:22.173Z,88.37
2018-01-26T18:00:22.137Z,88.85
2018-01-26T18:02:15.524Z,89.42
2018-01-26T18:03:15.472Z,89.32
2018-01-26T18:05:08.829Z,88.94
2018-01-26T18:06:08.786Z,89.14
2018-01-26T18:08:02.137Z,89.32
2018-01-26T18:09:02.094Z,89.14
2018-01-26T18:10:55.457Z,89.14
2018-01-26T18:11:55.414Z,89.23
2018-01-26T18:13:48.787Z,89.32
2018-01-26T18:14:48.746Z,89.99
2018-01-26T18:16:42.131Z,89.42
2018-01-26T18:17:42.090Z,89.32
2018-01-26T18:19:35.497Z,89.14
2018-01-26T18:20:35.416Z,88.75
2018-01-26T18:22:28.778Z,89.04
2018-01-26T18:23:28.740Z,89.51
2018-01-26T18:25:22.101Z,88.94
2018-01-26T18:26:22.060Z,89.23
2018-01-26T18:28:16.299Z,89.80
2018-01-26T18:29:16.260Z,89.04
2018-01-26T18:31:09.609Z,89.80
2018-01-26T18:32:09.572Z,88.75
2018-01-26T18:34:02.951Z,89.99
2018-01-26T18:35:02.898Z,89.99
2018-01-26T18:36:56.269Z,89.51
2018-01-26T18:37:56.228Z,89.32